Beatrice, Alabama
Current Conditions -  °F | °C
As of 1:53 AM on Monday 22 Dec 2014 (Local Time) from KGZH Reporting Station
Haze Haze  
Wind Chill: 54°   Ceiling: 200
Heat Index: 54°   Visibility: 1mi
Dew Point: 53°   Wind: 3mph
Humidity: 97%   Direction: 120°ESE
Pressure: 29.97"   Gusts: NA
Location:  31.73°N, 87.2°W
Report Text: KGZH 220753Z AUTO 12003KT 1SM BR OVC002 12/12 A2997 RMK AO2 SLP147 T01220117
Loading
Personal Weather Stations






























Interactive Weather Map New forecast layout! Learn more

10-Day Weather Forecast

Advertisements
Track Severe Weather on mobile